Time;durP1;ratioP1;P1;durP2;ratioP2;P2;SDS_P1;SDS_P2;PMS_P1;PMS_P2;Temp;Humidity;BMP_temperature;BMP_pressure;BME280_temperature;BME280_humidity;BME280_pressure;Samples;Min_cycle;Max_cycle;Signal;HPM_P1;HPM_P2
2023/10/14 00:01:28;;;;;;;6.32;2.30;;;;;;;22.19;51.41;99212.50;10224990;28;20035;-69
2023/10/14 00:06:34;;;;;;;10.43;2.33;;;;;;;22.05;51.68;99217.75;10227772;28;20070;-68
2023/10/14 00:11:39;;;;;;;5.90;2.50;;;;;;;21.97;52.27;99219.16;10224494;28;20521;-72
2023/10/14 00:16:51;;;;;;;14.70;3.28;;;;;;;21.84;52.49;99218.94;10223440;28;20054;-67
2023/10/14 00:21:52;;;;;;;7.40;2.17;;;;;;;21.79;52.58;99206.91;10228856;28;20452;-71
2023/10/14 00:26:55;;;;;;;7.80;2.92;;;;;;;21.70;52.71;99196.81;10223245;28;20061;-71
2023/10/14 00:31:58;;;;;;;11.98;2.40;;;;;;;21.53;53.24;99197.97;10221314;28;20043;-70
2023/10/14 00:37:00;;;;;;;3.15;2.22;;;;;;;21.44;53.60;99194.13;10221485;28;20553;-68
2023/10/14 00:42:03;;;;;;;8.27;2.78;;;;;;;21.42;53.74;99199.03;10218253;28;20497;-70
2023/10/14 00:47:07;;;;;;;4.72;2.60;;;;;;;21.30;54.42;99206.72;10228783;28;20483;-71
2023/10/14 00:52:15;;;;;;;5.47;2.20;;;;;;;21.12;54.60;99203.44;10220836;28;20126;-68
2023/10/14 01:02:30;;;;;;;5.78;2.20;;;;;;;21.19;54.88;99193.06;10217532;28;20134;-71
2023/10/14 01:07:32;;;;;;;6.82;2.42;;;;;;;21.36;54.61;99172.81;10227444;28;20857;-71
2023/10/14 01:12:44;;;;;;;9.75;2.92;;;;;;;21.54;54.21;99172.25;10217960;28;20047;-70
2023/10/14 01:17:46;;;;;;;6.55;2.10;;;;;;;21.71;53.83;99163.72;10217796;28;20110;-71
2023/10/14 01:23:00;;;;;;;11.65;3.22;;;;;;;21.94;52.90;99161.47;10220643;28;20047;-71
2023/10/14 01:28:11;;;;;;;6.63;2.05;;;;;;;22.18;52.10;99153.41;10225215;28;20047;-70
2023/10/14 01:33:15;;;;;;;8.70;2.03;;;;;;;22.38;51.51;99145.09;10215219;28;20114;-70
2023/10/14 01:38:17;;;;;;;9.35;3.47;;;;;;;22.53;51.11;99157.03;10222258;28;20767;-71
2023/10/14 01:43:24;;;;;;;9.48;2.55;;;;;;;22.64;50.95;99149.56;10216711;28;20410;-71
2023/10/14 01:48:30;;;;;;;16.35;2.95;;;;;;;22.65;50.96;99129.28;10230278;28;20578;-67
2023/10/14 01:53:32;;;;;;;8.50;2.83;;;;;;;22.65;51.04;99132.84;10220557;28;20402;-70
2023/10/14 01:58:36;;;;;;;8.77;2.00;;;;;;;22.62;51.02;99127.94;10220771;28;20039;-69
2023/10/14 02:03:56;;;;;;;9.73;2.42;;;;;;;22.62;50.98;99136.16;10216733;28;20082;-69
2023/10/14 02:09:00;;;;;;;8.65;2.53;;;;;;;22.64;51.09;99117.50;10230011;28;20561;-70
2023/10/14 02:14:06;;;;;;;8.30;2.47;;;;;;;22.67;50.95;99121.59;10225215;28;20051;-71
2023/10/14 02:19:36;;;;;;;7.82;2.00;;;;;;;22.73;50.82;99140.47;10226624;28;20117;-71
2023/10/14 02:24:37;;;;;;;19.63;2.85;;;;;;;22.73;50.66;99134.16;10222274;28;20063;-71
2023/10/14 02:29:45;;;;;;;6.82;2.60;;;;;;;22.72;50.86;99125.09;10216760;28;20047;-70
2023/10/14 02:34:46;;;;;;;8.15;2.65;;;;;;;22.71;50.93;99108.94;10222247;28;20043;-69
2023/10/14 02:39:50;;;;;;;11.23;2.67;;;;;;;22.66;51.24;99098.06;10221527;28;20414;-70
2023/10/14 02:44:52;;;;;;;13.32;3.20;;;;;;;22.58;51.42;99083.84;10221502;28;20043;-69
2023/10/14 02:50:05;;;;;;;6.95;2.60;;;;;;;22.54;51.57;99098.41;10219437;28;20705;-70
2023/10/14 02:55:21;;;;;;;8.93;2.60;;;;;;;22.57;51.51;99093.19;10220316;28;20059;-70
2023/10/14 03:00:32;;;;;;;12.70;4.23;;;;;;;22.54;51.86;99092.94;10213513;28;20537;-70
2023/10/14 03:05:52;;;;;;;9.57;2.88;;;;;;;22.52;51.93;99109.66;10227468;28;20062;-70
2023/10/14 03:10:59;;;;;;;12.95;4.30;;;;;;;22.49;52.25;99103.94;10222399;28;20492;-67
2023/10/14 03:16:00;;;;;;;5.43;2.60;;;;;;;22.38;52.32;99093.06;10222531;28;20757;-67
2023/10/14 03:21:08;;;;;;;14.60;3.13;;;;;;;22.34;52.08;99081.03;10220515;28;20098;-69
2023/10/14 03:26:13;;;;;;;10.98;3.08;;;;;;;22.35;52.26;99068.16;10227849;28;20055;-70
2023/10/14 03:31:16;;;;;;;6.22;2.58;;;;;;;22.33;52.15;99068.47;10224308;28;20040;-71
2023/10/14 03:36:22;;;;;;;10.73;3.25;;;;;;;22.31;51.96;99092.53;10251635;28;20055;-70
2023/10/14 03:41:37;;;;;;;7.53;2.07;;;;;;;22.31;51.21;99081.59;10232117;28;20052;-70
2023/10/14 03:46:42;;;;;;;2.90;0.90;;;;;;;22.30;50.16;99101.88;10221807;28;20861;-70
2023/10/14 03:51:44;;;;;;;4.43;0.60;;;;;;;22.30;50.04;99118.31;10227178;28;20125;-69
2023/10/14 03:56:46;;;;;;;12.05;1.15;;;;;;;22.27;49.63;99124.34;10231796;28;20070;-71
2023/10/14 04:01:54;;;;;;;5.32;0.30;;;;;;;22.27;49.44;99110.66;10226348;28;20059;-66
2023/10/14 04:12:01;;;;;;;2.17;0.20;;;;;;;22.03;50.34;99126.09;10220630;28;20058;-66
2023/10/14 04:17:18;;;;;;;2.17;0.30;;;;;;;22.00;50.50;99146.66;10220343;28;20063;-65
2023/10/14 04:22:32;;;;;;;3.45;0.30;;;;;;;21.98;50.60;99138.72;10214824;28;20499;-65
2023/10/14 04:27:45;;;;;;;2.25;0.30;;;;;;;21.95;50.91;99152.94;10219097;28;20134;-65
2023/10/14 04:37:57;;;;;;;4.82;0.30;;;;;;;21.88;51.20;99157.09;10220146;28;20105;-66
2023/10/14 04:48:35;;;;;;;2.83;0.10;;;;;;;21.63;52.37;99167.03;10216297;28;20061;-67
2023/10/14 04:53:43;;;;;;;2.25;0.10;;;;;;;21.63;52.57;99164.31;10222725;28;20419;-66
2023/10/14 04:58:46;;;;;;;2.05;0.20;;;;;;;21.65;52.89;99186.72;10221654;28;20048;-65
2023/10/14 05:03:47;;;;;;;3.28;0.20;;;;;;;21.71;52.53;99184.78;10217935;28;20044;-66
2023/10/14 05:08:54;;;;;;;0.98;0.10;;;;;;;21.70;52.76;99188.59;10220150;28;20530;-66
2023/10/14 05:14:21;;;;;;;0.68;0.10;;;;;;;21.61;53.31;99220.38;10222624;28;20047;-66
2023/10/14 05:19:26;;;;;;;0.55;0.05;;;;;;;21.42;54.78;99316.59;10219381;28;20046;-67
2023/10/14 05:24:31;;;;;;;0.00;0.00;;;;;;;18.91;64.46;99337.81;10232058;28;20114;-73
2023/10/14 05:29:33;;;;;;;1.35;0.00;;;;;;;18.19;66.52;99360.59;10206053;28;20421;-72
2023/10/14 05:34:34;;;;;;;0.52;0.15;;;;;;;17.89;66.80;99377.25;10225093;28;20051;-71
2023/10/14 05:39:37;;;;;;;0.55;0.00;;;;;;;17.62;67.40;99395.03;10227538;28;20590;-70
2023/10/14 05:44:49;;;;;;;0.00;0.00;;;;;;;17.30;67.94;99408.31;10217610;28;20047;-67
2023/10/14 05:49:52;;;;;;;0.00;0.00;;;;;;;17.09;67.90;99426.09;10215688;28;20055;-67
2023/10/14 05:54:55;;;;;;;0.75;0.00;;;;;;;16.95;68.14;99444.56;10216850;28;20148;-64
2023/10/14 05:59:57;;;;;;;0.10;0.00;;;;;;;16.77;69.10;99469.94;10214200;28;20054;-62
2023/10/14 06:04:59;;;;;;;0.10;0.00;;;;;;;16.78;68.97;99477.00;10215074;28;20118;-62
2023/10/14 06:10:01;;;;;;;0.28;0.00;;;;;;;16.73;69.25;99487.78;10213885;28;20050;-61
2023/10/14 06:15:09;;;;;;;0.00;0.00;;;;;;;16.78;69.04;99498.72;10212777;28;20083;-63
2023/10/14 06:20:14;;;;;;;0.00;0.00;;;;;;;16.87;68.42;99518.25;10212915;28;20050;-60
2023/10/14 06:25:16;;;;;;;0.00;0.00;;;;;;;16.91;68.43;99524.84;10215294;28;20063;-60
2023/10/14 06:30:20;;;;;;;0.35;0.00;;;;;;;16.97;68.42;99555.66;10215814;28;20515;-59
2023/10/14 06:35:22;;;;;;;0.10;0.00;;;;;;;17.12;67.67;99575.00;10215687;28;20044;-59
2023/10/14 06:40:24;;;;;;;0.63;0.08;;;;;;;17.17;67.52;99593.28;10250886;28;20054;-60
2023/10/14 06:45:31;;;;;;;0.20;0.00;;;;;;;17.42;67.01;99606.59;10215766;28;20055;-59
2023/10/14 06:50:37;;;;;;;0.00;0.00;;;;;;;17.44;66.56;99626.22;10211582;28;20055;-58
2023/10/14 06:55:39;;;;;;;0.00;0.00;;;;;;;17.38;66.40;99648.91;10216387;28;20161;-61
2023/10/14 07:00:41;;;;;;;0.00;0.00;;;;;;;17.43;66.02;99677.00;10221681;28;20079;-59
2023/10/14 07:05:48;;;;;;;0.00;0.00;;;;;;;17.39;65.93;99691.31;10222214;28;20153;-61
2023/10/14 07:10:50;;;;;;;0.10;0.08;;;;;;;17.35;66.00;99714.56;10230351;28;20055;-59
2023/10/14 07:15:53;;;;;;;0.00;0.00;;;;;;;17.39;65.84;99741.03;10224278;28;20073;-59
2023/10/14 07:21:03;;;;;;;0.68;0.00;;;;;;;17.00;65.91;99772.38;10227358;28;20042;-61
2023/10/14 07:26:12;;;;;;;1.73;0.20;;;;;;;16.51;65.45;99785.16;10226565;28;20051;-60
2023/10/14 07:31:14;;;;;;;2.88;0.30;;;;;;;16.15;63.81;99797.72;10225903;28;20042;-60
2023/10/14 07:36:16;;;;;;;5.28;0.55;;;;;;;16.08;62.35;99797.78;10256275;28;20458;-57
2023/10/14 07:41:19;;;;;;;3.95;0.30;;;;;;;16.09;62.00;99815.69;10222512;28;20044;-64
2023/10/14 07:46:20;;;;;;;1.98;0.50;;;;;;;16.00;61.44;99822.50;10224694;28;20062;-64
2023/10/14 07:51:22;;;;;;;2.67;0.30;;;;;;;15.99;60.46;99827.06;10215413;28;20055;-59
2023/10/14 07:56:28;;;;;;;3.33;0.23;;;;;;;16.03;60.10;99822.03;10224598;28;20051;-61
2023/10/14 08:01:30;;;;;;;5.70;0.45;;;;;;;16.09;59.74;99823.84;10226238;28;20059;-64
2023/10/14 08:06:31;;;;;;;5.10;0.70;;;;;;;16.06;59.58;99817.00;10224315;28;20051;-63
2023/10/14 08:11:37;;;;;;;3.92;0.60;;;;;;;16.19;59.37;99812.47;10222485;28;20047;-63
2023/10/14 08:16:38;;;;;;;5.95;0.60;;;;;;;15.98;58.75;99830.84;10219316;28;20526;-64
2023/10/14 08:21:40;;;;;;;7.00;0.95;;;;;;;16.00;58.71;99826.03;10222025;28;20058;-62
2023/10/14 08:26:41;;;;;;;7.28;1.13;;;;;;;16.02;58.49;99832.06;10230437;28;20081;-64
2023/10/14 08:31:43;;;;;;;7.57;0.77;;;;;;;16.01;58.42;99851.25;10220302;28;20050;-63
2023/10/14 08:36:45;;;;;;;7.90;0.82;;;;;;;16.02;57.85;99861.88;10219154;28;20039;-63
2023/10/14 08:41:48;;;;;;;6.22;0.82;;;;;;;16.05;57.44;99866.88;10213306;28;20031;-63
2023/10/14 08:46:51;;;;;;;10.85;0.88;;;;;;;16.21;57.30;99870.03;10224446;28;20047;-64
2023/10/14 08:51:53;;;;;;;3.67;0.85;;;;;;;16.30;57.05;99873.28;10226147;28;20059;-62
2023/10/14 08:56:55;;;;;;;3.65;0.70;;;;;;;16.35;57.04;99887.84;10212518;28;20128;-64
2023/10/14 09:01:57;;;;;;;7.97;0.90;;;;;;;16.34;56.43;99897.00;10228300;28;20048;-64
2023/10/14 09:07:03;;;;;;;2.13;0.63;;;;;;;16.43;55.86;99901.09;10222304;28;20058;-62
2023/10/14 09:12:12;;;;;;;3.83;0.60;;;;;;;16.44;55.32;99913.59;10225072;28;20031;-58
2023/10/14 09:17:15;;;;;;;4.30;0.60;;;;;;;16.60;54.39;99922.19;10217877;28;20137;-60
2023/10/14 09:22:33;;;;;;;8.27;0.90;;;;;;;16.72;53.80;99925.81;10221878;28;20518;-57
2023/10/14 09:27:35;;;;;;;4.22;1.25;;;;;;;16.92;52.83;99932.91;10223862;28;20130;-59
2023/10/14 09:32:36;;;;;;;2.13;1.08;;;;;;;16.91;52.16;99934.81;10227423;28;20056;-59
2023/10/14 09:37:39;;;;;;;4.82;0.40;;;;;;;17.07;51.23;99941.50;10217418;28;20054;-59
2023/10/14 09:42:44;;;;;;;4.70;0.50;;;;;;;17.18;51.03;99943.44;10219298;28;20043;-59
2023/10/14 09:47:47;;;;;;;4.32;0.40;;;;;;;17.34;50.46;99952.03;10215275;28;20054;-59
2023/10/14 09:52:52;;;;;;;3.85;0.40;;;;;;;17.31;49.55;99956.00;10216511;28;20455;-60
2023/10/14 09:57:55;;;;;;;3.65;0.30;;;;;;;17.25;49.10;99965.91;10223832;28;20149;-58
2023/10/14 10:02:57;;;;;;;5.32;1.42;;;;;;;17.37;48.85;99960.50;10227575;28;20066;-59
2023/10/14 10:08:17;;;;;;;4.07;0.50;;;;;;;17.34;47.38;99968.31;10214863;28;20048;-60
2023/10/14 10:13:23;;;;;;;4.90;0.45;;;;;;;17.27;47.07;99990.13;10215177;28;20038;-61
2023/10/14 10:18:57;;;;;;;4.80;0.30;;;;;;;17.33;46.47;99978.34;10226590;28;20179;-59
2023/10/14 10:24:09;;;;;;;2.08;0.30;;;;;;;17.28;45.81;99974.66;10209646;28;20051;-62
2023/10/14 10:29:43;;;;;;;3.97;0.40;;;;;;;17.34;45.65;99976.47;10214136;28;20052;-65
2023/10/14 10:35:07;;;;;;;2.58;0.20;;;;;;;17.30;45.05;99969.81;10212322;28;20406;-59
2023/10/14 10:40:10;;;;;;;2.95;0.20;;;;;;;17.13;43.79;99981.31;10220145;28;20058;-62
2023/10/14 10:45:21;;;;;;;2.85;0.50;;;;;;;17.01;44.32;99985.84;10215495;28;20043;-59
2023/10/14 10:50:26;;;;;;;3.90;0.20;;;;;;;16.96;43.80;99983.84;10220246;28;20482;-60
2023/10/14 10:55:28;;;;;;;4.70;0.45;;;;;;;17.24;44.18;99977.00;10232205;28;20509;-60
2023/10/14 11:00:31;;;;;;;3.10;0.22;;;;;;;17.67;44.39;99958.84;10225929;28;20496;-61
2023/10/14 11:05:36;;;;;;;7.15;0.50;;;;;;;17.67;45.10;99967.00;10229225;28;20110;-60
2023/10/14 11:10:39;;;;;;;5.18;0.30;;;;;;;18.24;44.56;99972.78;10189123;28;1029985;-60
2023/10/14 11:15:43;;;;;;;3.95;0.30;;;;;;;18.30;44.59;99966.41;10231663;28;20047;-60
2023/10/14 11:20:46;;;;;;;2.75;0.50;;;;;;;17.83;43.43;99979.91;10225784;28;20040;-59
2023/10/14 11:25:51;;;;;;;1.27;0.13;;;;;;;17.61;43.22;100001.38;10226605;28;20047;-62
2023/10/14 11:30:55;;;;;;;4.97;0.52;;;;;;;17.63;42.54;99989.22;10224722;28;20098;-61
2023/10/14 11:35:56;;;;;;;4.50;0.30;;;;;;;17.74;42.74;99982.16;10226602;28;20051;-64
2023/10/14 11:40:58;;;;;;;4.05;0.60;;;;;;;17.80;42.47;99974.97;10228597;28;20043;-63
2023/10/14 11:46:00;;;;;;;3.25;0.10;;;;;;;17.98;41.37;99974.06;10226666;28;20063;-61
2023/10/14 11:51:03;;;;;;;3.72;0.45;;;;;;;17.96;41.40;99973.47;10226399;28;20058;-60
2023/10/14 11:56:04;;;;;;;1.60;0.30;;;;;;;17.69;41.87;99986.63;10227481;28;20055;-60
2023/10/14 12:01:07;;;;;;;3.10;0.43;;;;;;;17.60;41.99;99994.28;10221783;28;20618;-59
2023/10/14 12:06:12;;;;;;;3.03;0.30;;;;;;;17.75;41.58;99975.66;10221186;28;20058;-62
2023/10/14 12:11:14;;;;;;;2.33;0.20;;;;;;;18.02;40.91;99976.09;10221110;28;20053;-61
2023/10/14 12:16:15;;;;;;;3.95;0.50;;;;;;;17.96;40.76;99966.16;10223678;28;20503;-61
2023/10/14 12:21:17;;;;;;;2.92;0.30;;;;;;;18.26;40.46;99988.88;10219259;28;20039;-61
2023/10/14 12:26:18;;;;;;;3.83;0.30;;;;;;;18.18;40.22;99984.63;10216839;28;20824;-60
2023/10/14 12:31:43;;;;;;;2.88;0.30;;;;;;;18.88;40.09;99986.53;10223830;28;20054;-61
2023/10/14 12:36:45;;;;;;;5.63;0.40;;;;;;;19.02;40.67;99989.81;10223292;28;20054;-61
2023/10/14 12:41:49;;;;;;;5.38;0.50;;;;;;;18.91;41.20;100004.28;10219325;28;20043;-58
2023/10/14 12:46:52;;;;;;;5.80;0.30;;;;;;;18.59;41.65;100008.19;10219829;28;20122;-59
2023/10/14 12:52:01;;;;;;;0.80;0.57;;;;;;;18.28;40.92;100016.69;10215933;28;20135;-63
2023/10/14 12:57:04;;;;;;;3.63;0.40;;;;;;;18.58;40.55;100019.31;10220414;28;20050;-63
2023/10/14 13:02:09;;;;;;;2.47;0.40;;;;;;;18.60;39.77;100020.75;10219630;28;20388;-63
2023/10/14 13:07:11;;;;;;;2.75;0.28;;;;;;;18.54;39.63;100024.41;10221467;28;20050;-63
2023/10/14 13:12:18;;;;;;;2.55;0.20;;;;;;;18.76;39.43;100032.81;10218194;28;20578;-62
2023/10/14 13:17:20;;;;;;;2.95;0.30;;;;;;;19.14;39.23;100030.66;10212254;28;20075;-61
2023/10/14 13:22:23;;;;;;;2.13;0.77;;;;;;;19.11;39.42;100031.13;10216291;28;20747;-62
2023/10/14 13:27:26;;;;;;;3.88;0.30;;;;;;;19.39;39.44;100022.16;10211994;28;20101;-60
2023/10/14 13:32:27;;;;;;;5.47;0.40;;;;;;;19.91;38.94;100033.00;10216630;28;20050;-62
2023/10/14 13:37:29;;;;;;;1.92;0.32;;;;;;;20.14;38.30;100029.31;10213923;28;20126;-62
2023/10/14 13:42:31;;;;;;;3.35;0.52;;;;;;;20.23;38.02;100037.91;10213235;28;20058;-63
2023/10/14 13:47:32;;;;;;;3.95;0.25;;;;;;;20.05;37.49;100055.34;10214957;28;20058;-61
2023/10/14 13:52:34;;;;;;;4.97;0.28;;;;;;;19.47;37.64;100056.38;10220449;28;20044;-62
2023/10/14 13:57:35;;;;;;;1.15;0.20;;;;;;;19.46;37.23;100063.75;10213667;28;20045;-61
2023/10/14 14:02:37;;;;;;;3.28;0.20;;;;;;;19.52;37.26;100076.41;10218393;28;20086;-60
2023/10/14 14:07:39;;;;;;;2.40;0.43;;;;;;;19.11;37.67;100072.81;10221592;28;20058;-61
2023/10/14 14:12:42;;;;;;;4.25;0.40;;;;;;;19.00;38.12;100085.41;10217302;28;20039;-61
2023/10/14 14:17:43;;;;;;;3.97;0.50;;;;;;;18.83;37.27;100090.72;10213125;28;20079;-62
2023/10/14 14:22:45;;;;;;;1.13;0.20;;;;;;;18.89;36.50;100108.00;10214011;28;20102;-62
2023/10/14 14:27:48;;;;;;;6.65;0.70;;;;;;;18.65;36.77;100098.16;10215373;28;20739;-63
2023/10/14 14:32:51;;;;;;;1.30;0.20;;;;;;;18.80;36.96;100093.94;10217757;28;20051;-64
2023/10/14 14:37:53;;;;;;;2.55;0.30;;;;;;;18.82;36.98;100110.88;10216922;28;20051;-60
2023/10/14 14:42:56;;;;;;;2.97;0.52;;;;;;;18.83;36.19;100117.13;10212284;28;20059;-63
2023/10/14 14:47:59;;;;;;;3.80;0.40;;;;;;;18.78;36.29;100119.72;10215125;28;20163;-61
2023/10/14 14:53:02;;;;;;;1.02;0.22;;;;;;;18.66;36.56;100133.31;10215332;28;20042;-61
2023/10/14 14:58:04;;;;;;;1.10;0.20;;;;;;;18.39;36.19;100138.34;10218363;28;20048;-61
2023/10/14 15:03:06;;;;;;;3.83;0.20;;;;;;;18.07;36.53;100145.91;10229810;28;20083;-62
2023/10/14 15:08:12;;;;;;;1.83;0.20;;;;;;;17.90;36.58;100141.13;10235704;28;20051;-63
2023/10/14 15:13:16;;;;;;;2.22;0.20;;;;;;;17.75;36.87;100149.66;10215337;28;20059;-64
2023/10/14 15:18:19;;;;;;;3.20;0.30;;;;;;;17.80;37.02;100157.97;10220709;28;20435;-66
2023/10/14 15:23:22;;;;;;;2.88;0.30;;;;;;;18.30;36.38;100151.44;10233649;28;20399;-63
2023/10/14 15:28:24;;;;;;;6.25;0.45;;;;;;;18.04;36.44;100152.66;10230280;28;20062;-65
2023/10/14 15:33:26;;;;;;;3.60;0.38;;;;;;;17.83;37.12;100167.53;10243989;28;20118;-66
2023/10/14 15:38:28;;;;;;;2.60;0.13;;;;;;;17.69;37.54;100168.75;10243465;28;20055;-64
2023/10/14 15:43:29;;;;;;;1.95;0.30;;;;;;;17.54;37.70;100171.88;10244038;28;20066;-63
2023/10/14 15:48:33;;;;;;;1.95;0.20;;;;;;;17.50;37.82;100174.22;10238504;28;20087;-63
2023/10/14 15:53:35;;;;;;;5.75;0.28;;;;;;;17.49;37.97;100186.13;10226960;28;20103;-59
2023/10/14 15:58:36;;;;;;;3.60;0.30;;;;;;;17.43;38.22;100187.03;10229293;28;20058;-60
2023/10/14 16:03:42;;;;;;;3.10;0.20;;;;;;;17.39;38.47;100200.22;10238291;28;20048;-59
2023/10/14 16:08:44;;;;;;;5.80;0.70;;;;;;;17.44;38.56;100203.13;10228731;28;20613;-60
2023/10/14 16:13:46;;;;;;;5.95;0.40;;;;;;;17.05;39.34;100207.88;10229121;28;20047;-60
2023/10/14 16:18:49;;;;;;;2.88;0.40;;;;;;;16.80;39.66;100199.69;10221069;28;20058;-60
2023/10/14 16:23:50;;;;;;;2.72;0.30;;;;;;;16.65;39.58;100210.88;10227099;28;20039;-59
2023/10/14 16:28:53;;;;;;;2.03;0.30;;;;;;;16.42;40.25;100222.28;10213420;28;20142;-62
2023/10/14 16:33:56;;;;;;;4.07;0.73;;;;;;;16.20;40.50;100234.50;10215918;28;20106;-60
2023/10/14 16:39:00;;;;;;;2.67;0.52;;;;;;;16.09;40.85;100240.59;10216036;28;20066;-60
2023/10/14 16:44:06;;;;;;;3.92;0.30;;;;;;;15.90;41.34;100247.78;10216733;28;20054;-58
2023/10/14 16:49:08;;;;;;;3.20;0.25;;;;;;;15.80;41.57;100250.94;10224637;28;20059;-59
2023/10/14 16:54:10;;;;;;;4.82;0.30;;;;;;;15.70;42.32;100261.31;10217658;28;20048;-59
2023/10/14 16:59:12;;;;;;;3.22;0.50;;;;;;;15.69;42.37;100275.94;10217469;28;20541;-60
2023/10/14 17:04:13;;;;;;;4.57;0.30;;;;;;;15.56;42.72;100293.03;10226902;28;20433;-60
2023/10/14 17:09:15;;;;;;;2.60;0.20;;;;;;;15.55;42.66;100286.78;10227251;28;20055;-59
2023/10/14 17:14:17;;;;;;;2.55;0.30;;;;;;;15.49;42.83;100297.66;10225942;28;20047;-59
2023/10/14 17:19:21;;;;;;;2.45;0.20;;;;;;;15.50;42.80;100304.72;10232530;28;20151;-59
2023/10/14 17:24:27;;;;;;;2.05;0.40;;;;;;;15.48;42.87;100296.78;10225724;28;20344;-58
2023/10/14 17:29:28;;;;;;;2.60;0.20;;;;;;;15.38;43.14;100307.22;10229131;28;20058;-59
2023/10/14 17:34:30;;;;;;;6.57;0.35;;;;;;;15.41;43.06;100317.66;10252574;28;20051;-59
2023/10/14 17:39:31;;;;;;;2.53;0.20;;;;;;;15.40;43.23;100329.50;10210592;28;20554;-60
2023/10/14 17:44:33;;;;;;;4.05;0.30;;;;;;;15.34;43.64;100333.06;10241237;28;20147;-59
2023/10/14 17:49:34;;;;;;;7.70;0.52;;;;;;;15.25;43.95;100337.84;10217183;28;20050;-58
2023/10/14 17:54:36;;;;;;;6.18;0.90;;;;;;;15.20;44.22;100354.69;10222834;28;20051;-58
2023/10/14 17:59:38;;;;;;;5.97;1.48;;;;;;;15.19;44.64;100368.47;10218783;28;20080;-58
2023/10/14 18:04:41;;;;;;;4.47;0.40;;;;;;;15.08;44.88;100370.72;10218432;28;20065;-58
2023/10/14 18:09:42;;;;;;;1.02;0.30;;;;;;;15.18;44.92;100380.31;10217800;28;20066;-59
2023/10/14 18:14:45;;;;;;;7.50;0.40;;;;;;;15.18;45.01;100385.75;10220253;28;20521;-58
2023/10/14 18:19:46;;;;;;;5.60;0.90;;;;;;;15.04;45.33;100410.06;10215322;28;20521;-60
2023/10/14 18:24:47;;;;;;;2.75;0.20;;;;;;;14.94;45.97;100414.22;10211918;28;20048;-59
2023/10/14 18:29:49;;;;;;;3.03;0.30;;;;;;;14.75;46.72;100422.06;10218421;28;20078;-60
2023/10/14 18:34:51;;;;;;;5.90;0.57;;;;;;;14.66;47.11;100436.78;10221017;28;20510;-58
2023/10/14 18:39:54;;;;;;;6.68;0.85;;;;;;;14.55;46.90;100440.84;10223947;28;20047;-60
2023/10/14 18:44:55;;;;;;;3.15;0.30;;;;;;;14.54;47.20;100451.91;10223526;28;20040;-60
2023/10/14 18:49:57;;;;;;;2.22;0.65;;;;;;;14.31;47.32;100454.88;10253546;28;20131;-60
2023/10/14 18:54:59;;;;;;;3.65;0.38;;;;;;;14.24;47.63;100460.25;10233385;28;20043;-62
2023/10/14 19:00:01;;;;;;;2.85;0.20;;;;;;;14.16;47.61;100460.38;10226486;28;20051;-62
2023/10/14 19:05:05;;;;;;;2.95;0.30;;;;;;;14.00;47.89;100465.06;10248089;28;20055;-63
2023/10/14 19:10:12;;;;;;;5.45;1.25;;;;;;;13.93;48.08;100456.03;10236453;28;20322;-62
2023/10/14 19:15:15;;;;;;;3.75;0.32;;;;;;;13.80;48.39;100462.19;10233997;28;20132;-61
2023/10/14 19:20:16;;;;;;;7.38;0.30;;;;;;;13.82;48.61;100464.66;10232658;28;20055;-61
2023/10/14 19:25:18;;;;;;;3.83;0.70;;;;;;;13.86;48.50;100463.25;10222509;28;20138;-64
2023/10/14 19:30:20;;;;;;;6.80;0.45;;;;;;;13.75;49.14;100466.50;10255783;28;20451;-62
2023/10/14 19:35:22;;;;;;;8.15;0.57;;;;;;;13.69;49.64;100481.63;10232309;28;20051;-60
2023/10/14 19:40:24;;;;;;;5.50;0.85;;;;;;;13.67;49.76;100475.56;10218721;28;20048;-62
2023/10/14 19:45:28;;;;;;;2.88;0.40;;;;;;;13.60;50.09;100482.75;10254535;28;20121;-62
2023/10/14 19:50:32;;;;;;;2.92;0.40;;;;;;;13.55;50.20;100487.91;10209444;28;20047;-60
2023/10/14 19:55:37;;;;;;;4.72;0.20;;;;;;;13.57;50.22;100502.06;10227620;28;20086;-60
2023/10/14 20:00:42;;;;;;;1.02;0.30;;;;;;;13.50;50.23;100504.69;10237792;28;20106;-61
2023/10/14 20:05:45;;;;;;;5.05;0.30;;;;;;;13.56;49.85;100497.69;10232693;28;20073;-61
2023/10/14 20:10:50;;;;;;;4.57;0.38;;;;;;;13.52;49.99;100499.09;10263994;28;20570;-62
2023/10/14 20:15:52;;;;;;;6.45;1.20;;;;;;;13.67;49.66;100500.72;10225266;28;20050;-61
2023/10/14 20:20:54;;;;;;;2.72;0.40;;;;;;;13.58;49.85;100503.72;10229950;28;20747;-61
2023/10/14 20:25:56;;;;;;;3.33;0.40;;;;;;;13.63;49.86;100515.63;10205851;28;20047;-58
2023/10/14 20:30:59;;;;;;;2.05;0.40;;;;;;;13.48;50.42;100517.53;10251914;28;20078;-58
2023/10/14 20:36:02;;;;;;;7.70;0.75;;;;;;;13.44;50.81;100532.44;10218820;28;20066;-58
2023/10/14 20:41:06;;;;;;;3.63;1.05;;;;;;;13.53;50.34;100520.50;10220954;28;20260;-58
2023/10/14 20:46:10;;;;;;;3.88;0.50;;;;;;;13.41;50.52;100530.97;10226198;28;20059;-59
2023/10/14 20:51:12;;;;;;;4.00;0.70;;;;;;;13.41;50.69;100527.44;10225348;28;20467;-59
2023/10/14 20:56:13;;;;;;;5.57;0.40;;;;;;;13.44;50.89;100525.19;10222303;28;20054;-58
2023/10/14 21:01:15;;;;;;;5.25;0.43;;;;;;;13.62;50.63;100534.72;10207021;28;20516;-60
2023/10/14 21:06:17;;;;;;;2.88;0.50;;;;;;;13.67;50.61;100525.03;10236532;28;20047;-60
2023/10/14 21:11:21;;;;;;;4.57;0.32;;;;;;;13.70;50.68;100518.38;10249455;28;20051;-60
2023/10/14 21:16:24;;;;;;;6.88;1.00;;;;;;;13.66;50.79;100530.59;10250184;28;20046;-59
2023/10/14 21:21:25;;;;;;;5.30;1.30;;;;;;;13.69;50.75;100532.94;10244694;28;20577;-61
2023/10/14 21:26:32;;;;;;;8.32;0.60;;;;;;;13.64;51.09;100532.66;10239154;28;20044;-60
2023/10/14 21:31:34;;;;;;;7.07;0.82;;;;;;;13.54;51.16;100529.44;10219943;28;20154;-63
2023/10/14 21:36:35;;;;;;;7.00;1.40;;;;;;;13.38;52.01;100528.66;10256337;28;20065;-61
2023/10/14 21:41:37;;;;;;;6.78;0.82;;;;;;;13.31;51.89;100538.53;10258076;28;20054;-62
2023/10/14 21:46:39;;;;;;;4.45;0.50;;;;;;;13.22;52.29;100540.47;10216504;28;20135;-62
2023/10/14 21:51:42;;;;;;;2.53;0.68;;;;;;;13.17;52.27;100537.50;10229662;28;20075;-61
2023/10/14 21:56:43;;;;;;;2.65;0.40;;;;;;;13.00;52.91;100536.03;10224667;28;20166;-61
2023/10/14 22:01:45;;;;;;;2.50;0.40;;;;;;;12.93;52.75;100541.31;10248318;28;20054;-62
2023/10/14 22:06:47;;;;;;;3.33;0.20;;;;;;;12.94;53.05;100536.78;10216619;28;20055;-63
2023/10/14 22:11:49;;;;;;;3.80;0.70;;;;;;;12.91;53.09;100546.06;10221318;28;20051;-64
2023/10/14 22:16:55;;;;;;;2.95;0.45;;;;;;;12.85;52.90;100544.94;10239277;28;20088;-61
2023/10/14 22:21:57;;;;;;;2.40;0.40;;;;;;;12.83;53.36;100547.00;10219542;28;20066;-61
2023/10/14 22:27:04;;;;;;;6.30;0.40;;;;;;;12.81;53.09;100532.84;10223324;28;21011;-63
2023/10/14 22:32:06;;;;;;;1.92;0.30;;;;;;;12.74;53.58;100539.19;10215828;28;20061;-61
2023/10/14 22:37:07;;;;;;;2.88;0.40;;;;;;;12.70;53.06;100528.78;10216145;28;20055;-61
2023/10/14 22:42:10;;;;;;;5.53;0.70;;;;;;;12.66;53.55;100529.34;10251085;28;20065;-62
2023/10/14 22:47:12;;;;;;;6.00;0.40;;;;;;;12.55;53.59;100525.22;10217822;28;20035;-60
2023/10/14 22:52:16;;;;;;;2.60;0.55;;;;;;;12.42;53.82;100533.97;10225114;28;20455;-63
2023/10/14 22:57:18;;;;;;;2.28;0.40;;;;;;;12.44;54.11;100531.94;10222350;28;20054;-61
2023/10/14 23:02:19;;;;;;;6.18;0.30;;;;;;;12.34;54.19;100535.88;10228568;28;20053;-61
2023/10/14 23:07:21;;;;;;;2.85;0.68;;;;;;;12.37;53.88;100533.66;10227286;28;20051;-61
2023/10/14 23:12:23;;;;;;;5.30;0.40;;;;;;;12.36;54.08;100533.84;10230812;28;20090;-62
2023/10/14 23:17:24;;;;;;;3.85;0.70;;;;;;;12.35;54.07;100518.72;10225519;28;20063;-60
2023/10/14 23:22:27;;;;;;;3.97;0.60;;;;;;;12.30;54.07;100525.50;10229284;28;20075;-60
2023/10/14 23:27:29;;;;;;;2.95;0.50;;;;;;;12.20;54.23;100524.88;10220144;28;20067;-61
2023/10/14 23:32:31;;;;;;;6.20;0.60;;;;;;;12.10;54.98;100538.63;10219487;28;20055;-63
2023/10/14 23:37:33;;;;;;;3.30;0.35;;;;;;;11.97;55.18;100541.09;10223646;28;20050;-61
2023/10/14 23:42:35;;;;;;;3.58;0.70;;;;;;;11.91;55.09;100547.22;10225619;28;20039;-60
2023/10/14 23:47:38;;;;;;;5.00;0.50;;;;;;;11.84;55.47;100546.22;10251455;28;20061;-62